sensor_id;sensor_type;location;lat;lon;timestamp;P1;durP1;ratioP1;P2;durP2;ratioP2
8594;SDS011;4335;48.860;9.198;2022-08-19T00:00:52;12.93;;;11.73;;
8594;SDS011;4335;48.860;9.198;2022-08-19T00:03:18;15.40;;;13.37;;
8594;SDS011;4335;48.860;9.198;2022-08-19T00:05:45;13.93;;;12.53;;
8594;SDS011;4335;48.860;9.198;2022-08-19T00:08:12;12.67;;;11.37;;
8594;SDS011;4335;48.860;9.198;2022-08-19T00:10:39;13.77;;;12.40;;
8594;SDS011;4335;48.860;9.198;2022-08-19T00:13:06;13.80;;;12.40;;
8594;SDS011;4335;48.860;9.198;2022-08-19T00:15:33;12.77;;;11.50;;
8594;SDS011;4335;48.860;9.198;2022-08-19T00:17:59;13.20;;;11.90;;
8594;SDS011;4335;48.860;9.198;2022-08-19T00:20:28;13.60;;;12.23;;
8594;SDS011;4335;48.860;9.198;2022-08-19T00:22:55;14.57;;;12.40;;
8594;SDS011;4335;48.860;9.198;2022-08-19T00:25:21;13.67;;;11.60;;
8594;SDS011;4335;48.860;9.198;2022-08-19T00:27:49;12.87;;;11.57;;
8594;SDS011;4335;48.860;9.198;2022-08-19T00:30:19;13.67;;;12.27;;
8594;SDS011;4335;48.860;9.198;2022-08-19T00:32:46;13.27;;;11.77;;
8594;SDS011;4335;48.860;9.198;2022-08-19T00:35:12;12.40;;;11.20;;
8594;SDS011;4335;48.860;9.198;2022-08-19T00:37:39;14.10;;;12.60;;
8594;SDS011;4335;48.860;9.198;2022-08-19T00:40:08;13.60;;;12.20;;
8594;SDS011;4335;48.860;9.198;2022-08-19T00:42:36;13.83;;;11.93;;
8594;SDS011;4335;48.860;9.198;2022-08-19T00:45:04;13.70;;;12.30;;
8594;SDS011;4335;48.860;9.198;2022-08-19T00:47:36;13.10;;;11.00;;
8594;SDS011;4335;48.860;9.198;2022-08-19T00:50:03;13.33;;;12.03;;
8594;SDS011;4335;48.860;9.198;2022-08-19T00:52:32;13.13;;;11.67;;
8594;SDS011;4335;48.860;9.198;2022-08-19T00:55:03;14.13;;;12.70;;
8594;SDS011;4335;48.860;9.198;2022-08-19T00:57:32;14.73;;;11.47;;
8594;SDS011;4335;48.860;9.198;2022-08-19T01:00:05;13.33;;;12.03;;
8594;SDS011;4335;48.860;9.198;2022-08-19T01:02:37;13.83;;;12.53;;
8594;SDS011;4335;48.860;9.198;2022-08-19T01:05:09;12.70;;;11.43;;
8594;SDS011;4335;48.860;9.198;2022-08-19T01:07:38;14.47;;;12.97;;
8594;SDS011;4335;48.860;9.198;2022-08-19T01:10:09;13.03;;;11.73;;
8594;SDS011;4335;48.860;9.198;2022-08-19T01:12:38;12.83;;;11.53;;
8594;SDS011;4335;48.860;9.198;2022-08-19T01:15:07;13.43;;;12.03;;
8594;SDS011;4335;48.860;9.198;2022-08-19T01:17:36;13.63;;;12.33;;
8594;SDS011;4335;48.860;9.198;2022-08-19T01:20:12;13.30;;;11.97;;
8594;SDS011;4335;48.860;9.198;2022-08-19T01:22:43;13.90;;;12.37;;
8594;SDS011;4335;48.860;9.198;2022-08-19T01:25:16;14.33;;;12.83;;
8594;SDS011;4335;48.860;9.198;2022-08-19T01:27:46;13.20;;;11.90;;
8594;SDS011;4335;48.860;9.198;2022-08-19T01:30:15;12.73;;;11.43;;
8594;SDS011;4335;48.860;9.198;2022-08-19T01:32:45;12.97;;;11.63;;
8594;SDS011;4335;48.860;9.198;2022-08-19T01:35:12;13.70;;;12.23;;
8594;SDS011;4335;48.860;9.198;2022-08-19T01:37:45;13.80;;;12.40;;
8594;SDS011;4335;48.860;9.198;2022-08-19T01:40:14;13.03;;;11.70;;
8594;SDS011;4335;48.860;9.198;2022-08-19T01:42:41;14.60;;;12.90;;
8594;SDS011;4335;48.860;9.198;2022-08-19T01:45:08;15.47;;;13.73;;
8594;SDS011;4335;48.860;9.198;2022-08-19T01:47:36;15.13;;;13.57;;
8594;SDS011;4335;48.860;9.198;2022-08-19T01:50:10;14.13;;;12.60;;
8594;SDS011;4335;48.860;9.198;2022-08-19T01:52:37;15.13;;;13.47;;
8594;SDS011;4335;48.860;9.198;2022-08-19T01:55:10;15.13;;;13.53;;
8594;SDS011;4335;48.860;9.198;2022-08-19T01:57:39;14.93;;;13.03;;
8594;SDS011;4335;48.860;9.198;2022-08-19T02:00:10;15.43;;;13.07;;
8594;SDS011;4335;48.860;9.198;2022-08-19T02:02:39;14.53;;;12.63;;
8594;SDS011;4335;48.860;9.198;2022-08-19T02:05:08;16.37;;;13.77;;
8594;SDS011;4335;48.860;9.198;2022-08-19T02:07:36;16.13;;;14.40;;
8594;SDS011;4335;48.860;9.198;2022-08-19T02:10:10;16.60;;;13.70;;
8594;SDS011;4335;48.860;9.198;2022-08-19T02:12:41;16.07;;;14.23;;
8594;SDS011;4335;48.860;9.198;2022-08-19T02:15:08;15.53;;;13.57;;
8594;SDS011;4335;48.860;9.198;2022-08-19T02:17:38;16.23;;;14.63;;
8594;SDS011;4335;48.860;9.198;2022-08-19T02:20:13;14.93;;;13.43;;
8594;SDS011;4335;48.860;9.198;2022-08-19T02:22:40;14.90;;;13.30;;
8594;SDS011;4335;48.860;9.198;2022-08-19T02:25:09;16.60;;;14.67;;
8594;SDS011;4335;48.860;9.198;2022-08-19T02:27:36;18.30;;;15.23;;
8594;SDS011;4335;48.860;9.198;2022-08-19T02:30:03;15.13;;;13.53;;
8594;SDS011;4335;48.860;9.198;2022-08-19T02:32:32;16.73;;;14.53;;
8594;SDS011;4335;48.860;9.198;2022-08-19T02:34:59;17.20;;;14.77;;
8594;SDS011;4335;48.860;9.198;2022-08-19T02:37:25;18.43;;;15.10;;
8594;SDS011;4335;48.860;9.198;2022-08-19T02:40:17;17.53;;;15.63;;
8594;SDS011;4335;48.860;9.198;2022-08-19T02:42:45;19.67;;;15.37;;
8594;SDS011;4335;48.860;9.198;2022-08-19T02:45:12;17.13;;;15.20;;
8594;SDS011;4335;48.860;9.198;2022-08-19T02:47:39;17.43;;;15.53;;
8594;SDS011;4335;48.860;9.198;2022-08-19T02:50:06;17.23;;;15.43;;
8594;SDS011;4335;48.860;9.198;2022-08-19T02:52:34;19.47;;;16.87;;
8594;SDS011;4335;48.860;9.198;2022-08-19T02:55:04;16.63;;;14.90;;
8594;SDS011;4335;48.860;9.198;2022-08-19T02:57:32;19.40;;;16.83;;
8594;SDS011;4335;48.860;9.198;2022-08-19T03:00:02;17.87;;;15.77;;
8594;SDS011;4335;48.860;9.198;2022-08-19T03:02:33;17.57;;;15.67;;
8594;SDS011;4335;48.860;9.198;2022-08-19T03:05:03;19.67;;;17.03;;
8594;SDS011;4335;48.860;9.198;2022-08-19T03:07:31;18.93;;;16.93;;
8594;SDS011;4335;48.860;9.198;2022-08-19T03:09:58;19.67;;;17.57;;
8594;SDS011;4335;48.860;9.198;2022-08-19T03:12:25;19.87;;;16.13;;
8594;SDS011;4335;48.860;9.198;2022-08-19T03:14:52;16.93;;;15.20;;
8594;SDS011;4335;48.860;9.198;2022-08-19T03:17:19;18.87;;;16.20;;
8594;SDS011;4335;48.860;9.198;2022-08-19T03:19:46;19.33;;;17.33;;
8594;SDS011;4335;48.860;9.198;2022-08-19T03:22:12;19.70;;;17.23;;
8594;SDS011;4335;48.860;9.198;2022-08-19T03:24:45;22.77;;;18.03;;
8594;SDS011;4335;48.860;9.198;2022-08-19T03:27:12;21.40;;;17.53;;
8594;SDS011;4335;48.860;9.198;2022-08-19T03:29:39;20.70;;;16.63;;
8594;SDS011;4335;48.860;9.198;2022-08-19T03:32:12;21.17;;;18.87;;
8594;SDS011;4335;48.860;9.198;2022-08-19T03:34:39;19.97;;;17.83;;
8594;SDS011;4335;48.860;9.198;2022-08-19T03:37:10;20.90;;;18.17;;
8594;SDS011;4335;48.860;9.198;2022-08-19T03:39:37;20.40;;;18.17;;
8594;SDS011;4335;48.860;9.198;2022-08-19T03:42:05;19.77;;;17.67;;
8594;SDS011;4335;48.860;9.198;2022-08-19T03:44:32;21.37;;;18.63;;
8594;SDS011;4335;48.860;9.198;2022-08-19T03:47:03;21.97;;;19.17;;
8594;SDS011;4335;48.860;9.198;2022-08-19T03:49:32;21.30;;;19.03;;
8594;SDS011;4335;48.860;9.198;2022-08-19T03:52:00;20.17;;;18.10;;
8594;SDS011;4335;48.860;9.198;2022-08-19T03:54:27;21.60;;;18.87;;
8594;SDS011;4335;48.860;9.198;2022-08-19T03:56:54;19.50;;;17.23;;
8594;SDS011;4335;48.860;9.198;2022-08-19T03:59:23;20.70;;;18.13;;
8594;SDS011;4335;48.860;9.198;2022-08-19T04:01:55;20.77;;;18.63;;
8594;SDS011;4335;48.860;9.198;2022-08-19T04:04:23;22.30;;;19.30;;
8594;SDS011;4335;48.860;9.198;2022-08-19T04:06:51;21.53;;;19.23;;
8594;SDS011;4335;48.860;9.198;2022-08-19T04:09:21;21.27;;;18.17;;
8594;SDS011;4335;48.860;9.198;2022-08-19T04:11:49;21.60;;;18.60;;
8594;SDS011;4335;48.860;9.198;2022-08-19T04:14:20;20.73;;;18.17;;
8594;SDS011;4335;48.860;9.198;2022-08-19T04:16:50;20.63;;;18.40;;
8594;SDS011;4335;48.860;9.198;2022-08-19T04:19:28;20.97;;;18.70;;
8594;SDS011;4335;48.860;9.198;2022-08-19T04:21:56;21.40;;;18.43;;
8594;SDS011;4335;48.860;9.198;2022-08-19T04:24:23;21.27;;;19.07;;
8594;SDS011;4335;48.860;9.198;2022-08-19T04:26:50;22.13;;;18.93;;
8594;SDS011;4335;48.860;9.198;2022-08-19T04:29:18;23.53;;;20.90;;
8594;SDS011;4335;48.860;9.198;2022-08-19T04:31:47;22.37;;;18.77;;
8594;SDS011;4335;48.860;9.198;2022-08-19T04:34:15;21.10;;;18.63;;
8594;SDS011;4335;48.860;9.198;2022-08-19T04:36:50;21.53;;;19.27;;
8594;SDS011;4335;48.860;9.198;2022-08-19T04:39:18;21.80;;;19.00;;
8594;SDS011;4335;48.860;9.198;2022-08-19T04:41:47;20.93;;;18.77;;
8594;SDS011;4335;48.860;9.198;2022-08-19T04:44:38;21.63;;;19.33;;
8594;SDS011;4335;48.860;9.198;2022-08-19T04:47:05;23.50;;;20.77;;
8594;SDS011;4335;48.860;9.198;2022-08-19T04:49:34;22.63;;;20.13;;
8594;SDS011;4335;48.860;9.198;2022-08-19T04:52:04;24.33;;;20.70;;
8594;SDS011;4335;48.860;9.198;2022-08-19T04:54:38;20.97;;;18.80;;
8594;SDS011;4335;48.860;9.198;2022-08-19T04:57:05;21.90;;;19.53;;
8594;SDS011;4335;48.860;9.198;2022-08-19T04:59:37;21.90;;;19.70;;
8594;SDS011;4335;48.860;9.198;2022-08-19T05:02:06;23.03;;;20.37;;
8594;SDS011;4335;48.860;9.198;2022-08-19T05:04:37;22.17;;;19.77;;
8594;SDS011;4335;48.860;9.198;2022-08-19T05:07:04;21.90;;;19.57;;
8594;SDS011;4335;48.860;9.198;2022-08-19T05:09:34;21.23;;;18.67;;
8594;SDS011;4335;48.860;9.198;2022-08-19T05:12:11;21.93;;;19.50;;
8594;SDS011;4335;48.860;9.198;2022-08-19T05:14:37;21.97;;;19.57;;
8594;SDS011;4335;48.860;9.198;2022-08-19T05:17:04;23.30;;;20.80;;
8594;SDS011;4335;48.860;9.198;2022-08-19T05:19:31;21.30;;;18.87;;
8594;SDS011;4335;48.860;9.198;2022-08-19T05:22:18;23.17;;;20.63;;
8594;SDS011;4335;48.860;9.198;2022-08-19T05:25:01;21.27;;;19.07;;
8594;SDS011;4335;48.860;9.198;2022-08-19T05:27:31;23.73;;;20.40;;
8594;SDS011;4335;48.860;9.198;2022-08-19T05:29:58;26.50;;;19.53;;
8594;SDS011;4335;48.860;9.198;2022-08-19T05:32:28;28.10;;;20.37;;
8594;SDS011;4335;48.860;9.198;2022-08-19T05:34:56;27.47;;;20.20;;
8594;SDS011;4335;48.860;9.198;2022-08-19T05:37:30;29.00;;;20.30;;
8594;SDS011;4335;48.860;9.198;2022-08-19T05:40:00;21.50;;;19.13;;
8594;SDS011;4335;48.860;9.198;2022-08-19T05:42:26;24.97;;;20.70;;
8594;SDS011;4335;48.860;9.198;2022-08-19T05:44:57;26.13;;;20.13;;
8594;SDS011;4335;48.860;9.198;2022-08-19T05:47:24;27.33;;;19.43;;
8594;SDS011;4335;48.860;9.198;2022-08-19T05:49:51;21.37;;;18.47;;
8594;SDS011;4335;48.860;9.198;2022-08-19T05:52:17;25.70;;;19.63;;
8594;SDS011;4335;48.860;9.198;2022-08-19T05:54:47;28.93;;;19.50;;
8594;SDS011;4335;48.860;9.198;2022-08-19T05:57:16;29.20;;;20.43;;
8594;SDS011;4335;48.860;9.198;2022-08-19T05:59:43;27.37;;;20.10;;
8594;SDS011;4335;48.860;9.198;2022-08-19T06:02:11;23.60;;;18.83;;
8594;SDS011;4335;48.860;9.198;2022-08-19T06:04:39;26.10;;;20.07;;
8594;SDS011;4335;48.860;9.198;2022-08-19T06:07:07;22.80;;;19.70;;
8594;SDS011;4335;48.860;9.198;2022-08-19T06:09:34;26.13;;;21.70;;
8594;SDS011;4335;48.860;9.198;2022-08-19T06:12:02;25.77;;;20.13;;
8594;SDS011;4335;48.860;9.198;2022-08-19T06:14:30;23.40;;;19.97;;
8594;SDS011;4335;48.860;9.198;2022-08-19T06:17:02;21.23;;;19.03;;
8594;SDS011;4335;48.860;9.198;2022-08-19T06:19:37;23.67;;;19.57;;
8594;SDS011;4335;48.860;9.198;2022-08-19T06:22:05;27.43;;;20.23;;
8594;SDS011;4335;48.860;9.198;2022-08-19T06:24:32;29.00;;;19.17;;
8594;SDS011;4335;48.860;9.198;2022-08-19T06:27:02;26.83;;;21.30;;
8594;SDS011;4335;48.860;9.198;2022-08-19T06:29:31;33.50;;;20.47;;
8594;SDS011;4335;48.860;9.198;2022-08-19T06:31:58;27.87;;;20.43;;
8594;SDS011;4335;48.860;9.198;2022-08-19T06:34:28;27.60;;;20.60;;
8594;SDS011;4335;48.860;9.198;2022-08-19T06:36:56;21.93;;;19.63;;
8594;SDS011;4335;48.860;9.198;2022-08-19T06:39:27;22.70;;;19.87;;
8594;SDS011;4335;48.860;9.198;2022-08-19T06:41:56;21.07;;;18.93;;
8594;SDS011;4335;48.860;9.198;2022-08-19T06:44:25;23.33;;;20.17;;
8594;SDS011;4335;48.860;9.198;2022-08-19T06:46:53;25.00;;;22.30;;
8594;SDS011;4335;48.860;9.198;2022-08-19T06:49:20;22.93;;;20.50;;
8594;SDS011;4335;48.860;9.198;2022-08-19T06:51:47;23.13;;;20.63;;
8594;SDS011;4335;48.860;9.198;2022-08-19T06:54:16;23.17;;;19.57;;
8594;SDS011;4335;48.860;9.198;2022-08-19T06:56:47;23.13;;;20.63;;
8594;SDS011;4335;48.860;9.198;2022-08-19T06:59:14;23.90;;;20.30;;
8594;SDS011;4335;48.860;9.198;2022-08-19T07:01:43;22.67;;;20.37;;
8594;SDS011;4335;48.860;9.198;2022-08-19T07:04:12;21.73;;;18.67;;
8594;SDS011;4335;48.860;9.198;2022-08-19T07:06:48;23.93;;;18.97;;
8594;SDS011;4335;48.860;9.198;2022-08-19T07:09:22;20.30;;;18.40;;
8594;SDS011;4335;48.860;9.198;2022-08-19T07:11:52;31.83;;;19.57;;
8594;SDS011;4335;48.860;9.198;2022-08-19T07:14:21;22.50;;;19.50;;
8594;SDS011;4335;48.860;9.198;2022-08-19T07:16:50;24.63;;;19.10;;
8594;SDS011;4335;48.860;9.198;2022-08-19T07:19:18;23.43;;;19.73;;
8594;SDS011;4335;48.860;9.198;2022-08-19T07:21:47;22.43;;;18.90;;
8594;SDS011;4335;48.860;9.198;2022-08-19T07:24:15;26.13;;;19.27;;
8594;SDS011;4335;48.860;9.198;2022-08-19T07:26:43;24.97;;;19.57;;
8594;SDS011;4335;48.860;9.198;2022-08-19T07:29:13;22.50;;;18.67;;
8594;SDS011;4335;48.860;9.198;2022-08-19T07:31:41;23.43;;;19.47;;
8594;SDS011;4335;48.860;9.198;2022-08-19T07:34:09;23.27;;;18.53;;
8594;SDS011;4335;48.860;9.198;2022-08-19T07:36:39;29.67;;;18.27;;
8594;SDS011;4335;48.860;9.198;2022-08-19T07:39:08;28.40;;;18.03;;
8594;SDS011;4335;48.860;9.198;2022-08-19T07:41:36;26.53;;;18.47;;
8594;SDS011;4335;48.860;9.198;2022-08-19T07:44:04;24.17;;;18.33;;
8594;SDS011;4335;48.860;9.198;2022-08-19T07:46:33;33.00;;;19.73;;
8594;SDS011;4335;48.860;9.198;2022-08-19T07:49:02;21.60;;;18.40;;
8594;SDS011;4335;48.860;9.198;2022-08-19T07:51:34;18.90;;;16.53;;
8594;SDS011;4335;48.860;9.198;2022-08-19T07:54:01;19.43;;;17.37;;
8594;SDS011;4335;48.860;9.198;2022-08-19T07:56:28;21.63;;;16.50;;
8594;SDS011;4335;48.860;9.198;2022-08-19T07:58:55;29.53;;;17.23;;
8594;SDS011;4335;48.860;9.198;2022-08-19T08:01:36;17.60;;;15.80;;
8594;SDS011;4335;48.860;9.198;2022-08-19T08:04:05;19.73;;;17.70;;
8594;SDS011;4335;48.860;9.198;2022-08-19T08:06:50;20.23;;;17.43;;
8594;SDS011;4335;48.860;9.198;2022-08-19T08:09:36;21.40;;;17.03;;
8594;SDS011;4335;48.860;9.198;2022-08-19T08:12:05;36.67;;;16.17;;
8594;SDS011;4335;48.860;9.198;2022-08-19T08:14:37;32.10;;;16.93;;
8594;SDS011;4335;48.860;9.198;2022-08-19T08:17:05;18.03;;;16.23;;
8594;SDS011;4335;48.860;9.198;2022-08-19T08:19:39;17.60;;;15.83;;
8594;SDS011;4335;48.860;9.198;2022-08-19T08:22:06;18.77;;;16.87;;
8594;SDS011;4335;48.860;9.198;2022-08-19T08:25:00;18.70;;;16.63;;
8594;SDS011;4335;48.860;9.198;2022-08-19T08:27:28;19.73;;;17.63;;
8594;SDS011;4335;48.860;9.198;2022-08-19T08:29:56;19.77;;;17.80;;
8594;SDS011;4335;48.860;9.198;2022-08-19T08:32:23;20.53;;;18.40;;
8594;SDS011;4335;48.860;9.198;2022-08-19T08:34:50;20.30;;;18.20;;
8594;SDS011;4335;48.860;9.198;2022-08-19T08:37:20;19.17;;;17.13;;
8594;SDS011;4335;48.860;9.198;2022-08-19T08:39:47;19.00;;;17.00;;
8594;SDS011;4335;48.860;9.198;2022-08-19T08:42:17;17.97;;;15.93;;
8594;SDS011;4335;48.860;9.198;2022-08-19T08:44:57;19.43;;;17.20;;
8594;SDS011;4335;48.860;9.198;2022-08-19T08:47:26;16.87;;;14.97;;
8594;SDS011;4335;48.860;9.198;2022-08-19T08:49:59;19.20;;;17.17;;
8594;SDS011;4335;48.860;9.198;2022-08-19T08:52:32;20.70;;;16.00;;
8594;SDS011;4335;48.860;9.198;2022-08-19T08:55:07;18.00;;;16.07;;
8594;SDS011;4335;48.860;9.198;2022-08-19T08:57:39;18.53;;;16.00;;
8594;SDS011;4335;48.860;9.198;2022-08-19T09:00:17;16.80;;;14.47;;
8594;SDS011;4335;48.860;9.198;2022-08-19T09:02:47;16.83;;;15.10;;
8594;SDS011;4335;48.860;9.198;2022-08-19T09:05:14;18.57;;;15.53;;
8594;SDS011;4335;48.860;9.198;2022-08-19T09:07:43;17.30;;;15.43;;
8594;SDS011;4335;48.860;9.198;2022-08-19T09:10:19;19.07;;;16.00;;
8594;SDS011;4335;48.860;9.198;2022-08-19T09:13:01;27.43;;;16.63;;
8594;SDS011;4335;48.860;9.198;2022-08-19T09:15:38;21.67;;;15.23;;
8594;SDS011;4335;48.860;9.198;2022-08-19T09:18:10;16.93;;;14.63;;
8594;SDS011;4335;48.860;9.198;2022-08-19T09:20:37;19.37;;;14.67;;
8594;SDS011;4335;48.860;9.198;2022-08-19T09:23:04;16.33;;;14.57;;
8594;SDS011;4335;48.860;9.198;2022-08-19T09:25:34;16.70;;;14.33;;
8594;SDS011;4335;48.860;9.198;2022-08-19T09:28:00;15.77;;;14.03;;
8594;SDS011;4335;48.860;9.198;2022-08-19T09:30:29;16.70;;;15.00;;
8594;SDS011;4335;48.860;9.198;2022-08-19T09:33:02;15.07;;;13.40;;
8594;SDS011;4335;48.860;9.198;2022-08-19T09:35:33;15.23;;;13.80;;
8594;SDS011;4335;48.860;9.198;2022-08-19T09:38:01;15.03;;;13.53;;
8594;SDS011;4335;48.860;9.198;2022-08-19T09:40:27;15.03;;;13.57;;
8594;SDS011;4335;48.860;9.198;2022-08-19T09:42:58;16.07;;;13.93;;
8594;SDS011;4335;48.860;9.198;2022-08-19T09:45:28;23.90;;;13.73;;
8594;SDS011;4335;48.860;9.198;2022-08-19T09:47:55;19.33;;;13.67;;
8594;SDS011;4335;48.860;9.198;2022-08-19T09:50:25;15.57;;;13.23;;
8594;SDS011;4335;48.860;9.198;2022-08-19T09:52:52;15.20;;;13.13;;
8594;SDS011;4335;48.860;9.198;2022-08-19T09:55:19;14.13;;;11.53;;
8594;SDS011;4335;48.860;9.198;2022-08-19T09:57:46;13.97;;;12.57;;
8594;SDS011;4335;48.860;9.198;2022-08-19T10:00:15;15.77;;;12.70;;
8594;SDS011;4335;48.860;9.198;2022-08-19T10:02:47;14.43;;;12.63;;
8594;SDS011;4335;48.860;9.198;2022-08-19T10:05:24;13.57;;;12.30;;
8594;SDS011;4335;48.860;9.198;2022-08-19T10:08:13;13.67;;;11.60;;
8594;SDS011;4335;48.860;9.198;2022-08-19T10:10:40;31.17;;;15.00;;
8594;SDS011;4335;48.860;9.198;2022-08-19T10:13:11;15.93;;;13.50;;
8594;SDS011;4335;48.860;9.198;2022-08-19T10:15:39;16.73;;;13.27;;
8594;SDS011;4335;48.860;9.198;2022-08-19T10:18:11;13.67;;;12.23;;
8594;SDS011;4335;48.860;9.198;2022-08-19T10:21:05;13.70;;;12.30;;
8594;SDS011;4335;48.860;9.198;2022-08-19T10:23:44;12.10;;;10.93;;
8594;SDS011;4335;48.860;9.198;2022-08-19T10:26:20;14.13;;;11.73;;
8594;SDS011;4335;48.860;9.198;2022-08-19T10:31:49;13.20;;;11.53;;
8594;SDS011;4335;48.860;9.198;2022-08-19T10:34:21;11.90;;;10.37;;
8594;SDS011;4335;48.860;9.198;2022-08-19T10:36:50;12.33;;;10.90;;
8594;SDS011;4335;48.860;9.198;2022-08-19T10:39:33;11.60;;;9.37;;
8594;SDS011;4335;48.860;9.198;2022-08-19T10:42:21;12.43;;;11.13;;
8594;SDS011;4335;48.860;9.198;2022-08-19T10:44:56;12.63;;;10.63;;
8594;SDS011;4335;48.860;9.198;2022-08-19T10:47:57;10.33;;;9.33;;
8594;SDS011;4335;48.860;9.198;2022-08-19T10:50:59;9.40;;;8.50;;
8594;SDS011;4335;48.860;9.198;2022-08-19T10:53:58;9.40;;;8.50;;
8594;SDS011;4335;48.860;9.198;2022-08-19T10:59:57;9.37;;;7.87;;
8594;SDS011;4335;48.860;9.198;2022-08-19T11:02:49;8.40;;;7.60;;
8594;SDS011;4335;48.860;9.198;2022-08-19T11:05:36;10.17;;;7.87;;
8594;SDS011;4335;48.860;9.198;2022-08-19T11:08:06;8.00;;;7.20;;
8594;SDS011;4335;48.860;9.198;2022-08-19T11:14:02;9.97;;;7.20;;
8594;SDS011;4335;48.860;9.198;2022-08-19T11:16:33;8.10;;;7.23;;
8594;SDS011;4335;48.860;9.198;2022-08-19T11:19:31;8.70;;;7.47;;
8594;SDS011;4335;48.860;9.198;2022-08-19T11:22:35;7.63;;;6.90;;
8594;SDS011;4335;48.860;9.198;2022-08-19T11:25:28;8.03;;;7.20;;
8594;SDS011;4335;48.860;9.198;2022-08-19T11:27:55;7.83;;;7.10;;
8594;SDS011;4335;48.860;9.198;2022-08-19T11:30:24;8.87;;;7.97;;
8594;SDS011;4335;48.860;9.198;2022-08-19T11:32:52;10.17;;;7.60;;
8594;SDS011;4335;48.860;9.198;2022-08-19T11:35:18;10.30;;;8.03;;
8594;SDS011;4335;48.860;9.198;2022-08-19T11:37:45;8.30;;;7.50;;
8594;SDS011;4335;48.860;9.198;2022-08-19T11:40:12;9.07;;;8.27;;
8594;SDS011;4335;48.860;9.198;2022-08-19T11:42:38;8.77;;;7.90;;
8594;SDS011;4335;48.860;9.198;2022-08-19T11:45:23;10.73;;;9.63;;
8594;SDS011;4335;48.860;9.198;2022-08-19T11:47:50;10.80;;;7.83;;
8594;SDS011;4335;48.860;9.198;2022-08-19T11:50:20;7.77;;;7.07;;
8594;SDS011;4335;48.860;9.198;2022-08-19T11:52:48;8.50;;;7.40;;
8594;SDS011;4335;48.860;9.198;2022-08-19T11:55:15;8.40;;;7.60;;
8594;SDS011;4335;48.860;9.198;2022-08-19T11:57:42;9.20;;;8.30;;
8594;SDS011;4335;48.860;9.198;2022-08-19T12:00:09;8.27;;;7.23;;
8594;SDS011;4335;48.860;9.198;2022-08-19T12:02:37;9.10;;;8.20;;
8594;SDS011;4335;48.860;9.198;2022-08-19T12:05:08;9.00;;;8.00;;
8594;SDS011;4335;48.860;9.198;2022-08-19T12:07:36;9.73;;;8.70;;
8594;SDS011;4335;48.860;9.198;2022-08-19T12:10:03;11.23;;;8.07;;
8594;SDS011;4335;48.860;9.198;2022-08-19T12:12:30;9.00;;;8.20;;
8594;SDS011;4335;48.860;9.198;2022-08-19T12:15:03;9.03;;;8.20;;
8594;SDS011;4335;48.860;9.198;2022-08-19T12:17:30;9.13;;;7.67;;
8594;SDS011;4335;48.860;9.198;2022-08-19T12:20:00;8.57;;;7.70;;
8594;SDS011;4335;48.860;9.198;2022-08-19T12:22:27;9.43;;;8.13;;
8594;SDS011;4335;48.860;9.198;2022-08-19T12:24:56;9.07;;;8.20;;
8594;SDS011;4335;48.860;9.198;2022-08-19T12:27:23;10.13;;;8.63;;
8594;SDS011;4335;48.860;9.198;2022-08-19T12:29:53;9.53;;;8.00;;
8594;SDS011;4335;48.860;9.198;2022-08-19T12:32:19;10.20;;;8.20;;
8594;SDS011;4335;48.860;9.198;2022-08-19T12:34:55;8.97;;;8.17;;
8594;SDS011;4335;48.860;9.198;2022-08-19T12:37:26;9.70;;;8.77;;
8594;SDS011;4335;48.860;9.198;2022-08-19T12:39:53;9.67;;;8.77;;
8594;SDS011;4335;48.860;9.198;2022-08-19T12:42:25;8.27;;;7.57;;
8594;SDS011;4335;48.860;9.198;2022-08-19T12:44:52;7.43;;;6.83;;
8594;SDS011;4335;48.860;9.198;2022-08-19T12:47:21;9.83;;;7.80;;
8594;SDS011;4335;48.860;9.198;2022-08-19T12:49:51;12.90;;;7.13;;
8594;SDS011;4335;48.860;9.198;2022-08-19T12:52:22;8.97;;;7.30;;
8594;SDS011;4335;48.860;9.198;2022-08-19T12:54:51;7.93;;;6.60;;
8594;SDS011;4335;48.860;9.198;2022-08-19T12:57:20;10.27;;;6.67;;
8594;SDS011;4335;48.860;9.198;2022-08-19T12:59:48;9.47;;;7.03;;
8594;SDS011;4335;48.860;9.198;2022-08-19T13:02:19;7.63;;;6.13;;
8594;SDS011;4335;48.860;9.198;2022-08-19T13:04:50;8.00;;;7.20;;
8594;SDS011;4335;48.860;9.198;2022-08-19T13:07:16;6.93;;;6.33;;
8594;SDS011;4335;48.860;9.198;2022-08-19T13:09:43;6.30;;;5.70;;
8594;SDS011;4335;48.860;9.198;2022-08-19T13:12:12;7.20;;;6.50;;
8594;SDS011;4335;48.860;9.198;2022-08-19T13:14:40;6.73;;;6.07;;
8594;SDS011;4335;48.860;9.198;2022-08-19T13:17:07;7.20;;;6.53;;
8594;SDS011;4335;48.860;9.198;2022-08-19T13:19:38;7.20;;;6.50;;
8594;SDS011;4335;48.860;9.198;2022-08-19T13:22:13;6.93;;;6.23;;
8594;SDS011;4335;48.860;9.198;2022-08-19T13:24:40;14.67;;;12.63;;
8594;SDS011;4335;48.860;9.198;2022-08-19T13:27:07;18.00;;;14.53;;
8594;SDS011;4335;48.860;9.198;2022-08-19T13:32:38;17.63;;;14.63;;
8594;SDS011;4335;48.860;9.198;2022-08-19T13:35:25;17.80;;;15.90;;
8594;SDS011;4335;48.860;9.198;2022-08-19T13:37:55;19.60;;;16.60;;
8594;SDS011;4335;48.860;9.198;2022-08-19T13:40:23;19.53;;;17.60;;
8594;SDS011;4335;48.860;9.198;2022-08-19T13:43:07;17.03;;;15.30;;
8594;SDS011;4335;48.860;9.198;2022-08-19T13:45:38;19.03;;;16.97;;
8594;SDS011;4335;48.860;9.198;2022-08-19T13:48:11;19.27;;;17.27;;
8594;SDS011;4335;48.860;9.198;2022-08-19T13:50:42;21.00;;;18.70;;
8594;SDS011;4335;48.860;9.198;2022-08-19T13:53:12;21.93;;;19.57;;
8594;SDS011;4335;48.860;9.198;2022-08-19T13:55:38;22.97;;;20.33;;
8594;SDS011;4335;48.860;9.198;2022-08-19T13:58:06;21.93;;;19.57;;
8594;SDS011;4335;48.860;9.198;2022-08-19T14:00:35;22.43;;;20.03;;
8594;SDS011;4335;48.860;9.198;2022-08-19T14:03:04;21.97;;;19.63;;
8594;SDS011;4335;48.860;9.198;2022-08-19T14:05:31;23.93;;;21.47;;
8594;SDS011;4335;48.860;9.198;2022-08-19T14:07:58;27.20;;;21.50;;
8594;SDS011;4335;48.860;9.198;2022-08-19T14:10:25;24.60;;;22.00;;
8594;SDS011;4335;48.860;9.198;2022-08-19T14:12:53;24.67;;;22.17;;
8594;SDS011;4335;48.860;9.198;2022-08-19T14:15:24;26.57;;;23.90;;
8594;SDS011;4335;48.860;9.198;2022-08-19T14:17:52;24.27;;;21.73;;
8594;SDS011;4335;48.860;9.198;2022-08-19T14:20:19;24.67;;;22.27;;
8594;SDS011;4335;48.860;9.198;2022-08-19T14:22:47;25.73;;;23.00;;
8594;SDS011;4335;48.860;9.198;2022-08-19T14:25:15;25.50;;;22.83;;
8594;SDS011;4335;48.860;9.198;2022-08-19T14:27:43;27.10;;;24.20;;
8594;SDS011;4335;48.860;9.198;2022-08-19T14:30:11;26.67;;;23.87;;
8594;SDS011;4335;48.860;9.198;2022-08-19T14:32:40;25.97;;;23.37;;
8594;SDS011;4335;48.860;9.198;2022-08-19T14:35:10;26.37;;;23.57;;
8594;SDS011;4335;48.860;9.198;2022-08-19T14:37:41;30.20;;;25.97;;
8594;SDS011;4335;48.860;9.198;2022-08-19T14:40:09;26.17;;;23.57;;
8594;SDS011;4335;48.860;9.198;2022-08-19T14:42:37;35.80;;;24.87;;
8594;SDS011;4335;48.860;9.198;2022-08-19T14:45:08;27.70;;;24.77;;
8594;SDS011;4335;48.860;9.198;2022-08-19T14:47:35;29.63;;;24.90;;
8594;SDS011;4335;48.860;9.198;2022-08-19T14:50:04;27.90;;;24.87;;
8594;SDS011;4335;48.860;9.198;2022-08-19T14:52:32;26.87;;;24.13;;
8594;SDS011;4335;48.860;9.198;2022-08-19T14:54:59;26.67;;;23.83;;
8594;SDS011;4335;48.860;9.198;2022-08-19T14:57:26;28.10;;;23.90;;
8594;SDS011;4335;48.860;9.198;2022-08-19T14:59:53;25.67;;;22.93;;
8594;SDS011;4335;48.860;9.198;2022-08-19T15:02:22;26.77;;;22.70;;
8594;SDS011;4335;48.860;9.198;2022-08-19T15:04:49;27.83;;;24.77;;
8594;SDS011;4335;48.860;9.198;2022-08-19T15:07:23;26.63;;;23.70;;
8594;SDS011;4335;48.860;9.198;2022-08-19T15:09:50;28.57;;;24.93;;
8594;SDS011;4335;48.860;9.198;2022-08-19T15:12:23;28.27;;;25.27;;
8594;SDS011;4335;48.860;9.198;2022-08-19T15:14:53;29.23;;;26.17;;
8594;SDS011;4335;48.860;9.198;2022-08-19T15:17:20;27.03;;;23.47;;
8594;SDS011;4335;48.860;9.198;2022-08-19T15:19:46;25.73;;;22.93;;
8594;SDS011;4335;48.860;9.198;2022-08-19T15:22:12;24.47;;;21.53;;
8594;SDS011;4335;48.860;9.198;2022-08-19T15:24:39;23.97;;;21.53;;